sensor_id;sensor_type;location;lat;lon;timestamp;pressure;altitude;pressure_sealevel;temperature;humidity
5298;BME280;14738;42.668;23.250;2023-04-28T00:01:16;48418.09;;;-141.90;44.42
5298;BME280;14738;42.668;23.250;2023-04-28T00:03:41;48420.09;;;-141.90;44.86
5298;BME280;14738;42.668;23.250;2023-04-28T00:06:07;48392.28;;;-141.90;44.90
5298;BME280;14738;42.668;23.250;2023-04-28T00:08:33;48394.28;;;-141.90;44.94
5298;BME280;14738;42.668;23.250;2023-04-28T00:10:58;48406.19;;;-141.90;45.10
5298;BME280;14738;42.668;23.250;2023-04-28T00:13:25;48437.94;;;-141.90;45.05
5298;BME280;14738;42.668;23.250;2023-04-28T00:15:50;48394.28;;;-141.90;45.32
5298;BME280;14738;42.668;23.250;2023-04-28T00:18:20;48410.16;;;-141.90;45.23
5298;BME280;14738;42.668;23.250;2023-04-28T00:20:45;48410.16;;;-141.90;45.28
5298;BME280;14738;42.668;23.250;2023-04-28T00:23:11;48422.06;;;-141.90;45.46
5298;BME280;14738;42.668;23.250;2023-04-28T00:25:36;48402.22;;;-141.90;45.01
5298;BME280;14738;42.668;23.250;2023-04-28T00:28:02;48392.28;;;-141.90;45.16
5298;BME280;14738;42.668;23.250;2023-04-28T00:30:29;48414.13;;;-141.90;45.30
5298;BME280;14738;42.668;23.250;2023-04-28T00:32:55;48404.19;;;-141.90;45.32
5298;BME280;14738;42.668;23.250;2023-04-28T00:35:21;48430.00;;;-141.90;45.21
5298;BME280;14738;42.668;23.250;2023-04-28T00:37:46;48390.31;;;-141.90;45.48
5298;BME280;14738;42.668;23.250;2023-04-28T00:40:12;48378.38;;;-141.90;45.52
5298;BME280;14738;42.668;23.250;2023-04-28T00:42:38;48424.06;;;-141.90;45.68
5298;BME280;14738;42.668;23.250;2023-04-28T00:45:03;48394.28;;;-141.90;46.96
5298;BME280;14738;42.668;23.250;2023-04-28T00:47:35;48386.34;;;-141.90;46.45
5298;BME280;14738;42.668;23.250;2023-04-28T00:50:01;48414.13;;;-141.90;45.72
5298;BME280;14738;42.668;23.250;2023-04-28T00:52:28;48414.13;;;-141.90;46.62
5298;BME280;14738;42.668;23.250;2023-04-28T00:54:54;48406.19;;;-141.90;46.07
5298;BME280;14738;42.668;23.250;2023-04-28T00:57:21;48410.16;;;-141.90;47.13
5298;BME280;14738;42.668;23.250;2023-04-28T00:59:47;48408.16;;;-141.90;46.85
5298;BME280;14738;42.668;23.250;2023-04-28T01:02:13;48402.22;;;-141.90;46.66
5298;BME280;14738;42.668;23.250;2023-04-28T01:04:42;48433.97;;;-141.90;46.96
5298;BME280;14738;42.668;23.250;2023-04-28T01:07:08;48418.09;;;-141.90;47.17
5298;BME280;14738;42.668;23.250;2023-04-28T01:09:33;48414.13;;;-141.90;46.91
5298;BME280;14738;42.668;23.250;2023-04-28T01:11:59;48453.81;;;-141.90;46.94
5298;BME280;14738;42.668;23.250;2023-04-28T01:14:24;48432.00;;;-141.90;47.00
5298;BME280;14738;42.668;23.250;2023-04-28T01:16:50;48433.97;;;-141.90;47.04
5298;BME280;14738;42.668;23.250;2023-04-28T01:19:20;48418.09;;;-141.90;47.55
5298;BME280;14738;42.668;23.250;2023-04-28T01:21:47;48441.91;;;-141.90;47.57
5298;BME280;14738;42.668;23.250;2023-04-28T01:24:12;48378.38;;;-141.90;46.83
5298;BME280;14738;42.668;23.250;2023-04-28T01:26:37;48459.78;;;-141.90;46.68
5298;BME280;14738;42.668;23.250;2023-04-28T01:29:03;48424.06;;;-141.90;46.50
5298;BME280;14738;42.668;23.250;2023-04-28T01:31:29;48449.84;;;-141.90;47.31
5298;BME280;14738;42.668;23.250;2023-04-28T01:33:57;48435.97;;;-141.90;46.84
5298;BME280;14738;42.668;23.250;2023-04-28T01:36:24;48408.16;;;-141.90;46.89
5298;BME280;14738;42.668;23.250;2023-04-28T01:38:51;48428.03;;;-141.90;47.01
5298;BME280;14738;42.668;23.250;2023-04-28T01:41:16;48453.81;;;-141.90;47.03
5298;BME280;14738;42.668;23.250;2023-04-28T01:43:42;48449.84;;;-141.90;47.11
5298;BME280;14738;42.668;23.250;2023-04-28T01:46:08;48432.00;;;-141.90;47.44
5298;BME280;14738;42.668;23.250;2023-04-28T01:48:34;48449.84;;;-141.90;47.19
5298;BME280;14738;42.668;23.250;2023-04-28T01:50:59;48422.06;;;-141.90;47.04
5298;BME280;14738;42.668;23.250;2023-04-28T01:53:25;48441.91;;;-141.90;46.90
5298;BME280;14738;42.668;23.250;2023-04-28T01:55:50;48445.88;;;-141.90;47.67
5298;BME280;14738;42.668;23.250;2023-04-28T01:58:16;48451.84;;;-141.90;47.96
5298;BME280;14738;42.668;23.250;2023-04-28T02:00:41;48410.16;;;-141.90;48.35
5298;BME280;14738;42.668;23.250;2023-04-28T02:03:07;48437.94;;;-141.90;48.57
5298;BME280;14738;42.668;23.250;2023-04-28T02:05:32;48416.09;;;-141.90;49.15
5298;BME280;14738;42.668;23.250;2023-04-28T02:07:57;48463.75;;;-141.90;49.72
5298;BME280;14738;42.668;23.250;2023-04-28T02:10:23;48465.75;;;-141.90;49.98
5298;BME280;14738;42.668;23.250;2023-04-28T02:12:48;48447.88;;;-141.90;50.03
5298;BME280;14738;42.668;23.250;2023-04-28T02:15:13;48473.69;;;-141.90;49.85
5298;BME280;14738;42.668;23.250;2023-04-28T02:17:39;48445.88;;;-141.90;49.51
5298;BME280;14738;42.668;23.250;2023-04-28T02:20:05;48433.97;;;-141.90;49.53
5298;BME280;14738;42.668;23.250;2023-04-28T02:22:31;48449.84;;;-141.90;50.02
5298;BME280;14738;42.668;23.250;2023-04-28T02:24:56;48443.91;;;-141.90;49.83
5298;BME280;14738;42.668;23.250;2023-04-28T02:27:22;48430.00;;;-141.90;49.80
5298;BME280;14738;42.668;23.250;2023-04-28T02:29:47;48471.69;;;-141.90;49.72
5298;BME280;14738;42.668;23.250;2023-04-28T02:32:13;48449.84;;;-141.90;50.06
5298;BME280;14738;42.668;23.250;2023-04-28T02:34:38;48426.03;;;-141.90;49.84
5298;BME280;14738;42.668;23.250;2023-04-28T02:37:04;48463.75;;;-141.90;49.95
5298;BME280;14738;42.668;23.250;2023-04-28T02:39:29;48449.84;;;-141.90;49.82
5298;BME280;14738;42.668;23.250;2023-04-28T02:41:55;48437.94;;;-141.90;49.71
5298;BME280;14738;42.668;23.250;2023-04-28T02:44:20;48467.72;;;-141.90;50.01
5298;BME280;14738;42.668;23.250;2023-04-28T02:46:46;48457.81;;;-141.90;50.03
5298;BME280;14738;42.668;23.250;2023-04-28T02:49:11;48435.97;;;-141.90;50.38
5298;BME280;14738;42.668;23.250;2023-04-28T02:51:37;48473.69;;;-141.90;50.31
5298;BME280;14738;42.668;23.250;2023-04-28T02:54:02;48453.81;;;-141.90;50.39
5298;BME280;14738;42.668;23.250;2023-04-28T02:56:28;48463.75;;;-141.90;50.99
5298;BME280;14738;42.668;23.250;2023-04-28T02:58:57;48467.72;;;-141.90;50.67
5298;BME280;14738;42.668;23.250;2023-04-28T03:01:22;48479.63;;;-141.90;50.36
5298;BME280;14738;42.668;23.250;2023-04-28T03:03:48;48451.84;;;-141.90;49.89
5298;BME280;14738;42.668;23.250;2023-04-28T03:06:13;48441.91;;;-141.90;49.74
5298;BME280;14738;42.668;23.250;2023-04-28T03:08:39;48463.75;;;-141.90;49.88
5298;BME280;14738;42.668;23.250;2023-04-28T03:11:04;48473.69;;;-141.90;49.46
5298;BME280;14738;42.668;23.250;2023-04-28T03:13:30;48469.72;;;-141.90;49.56
5298;BME280;14738;42.668;23.250;2023-04-28T03:15:55;48455.81;;;-141.90;49.32
5298;BME280;14738;42.668;23.250;2023-04-28T03:18:21;48435.97;;;-141.90;49.17
5298;BME280;14738;42.668;23.250;2023-04-28T03:20:47;48471.69;;;-141.90;49.19
5298;BME280;14738;42.668;23.250;2023-04-28T03:23:13;48449.84;;;-141.90;48.81
5298;BME280;14738;42.668;23.250;2023-04-28T03:25:38;48481.63;;;-141.90;49.12
5298;BME280;14738;42.668;23.250;2023-04-28T03:28:04;48435.97;;;-141.90;48.65
5298;BME280;14738;42.668;23.250;2023-04-28T03:30:30;48471.69;;;-141.90;48.37
5298;BME280;14738;42.668;23.250;2023-04-28T03:32:55;48465.75;;;-141.90;48.61
5298;BME280;14738;42.668;23.250;2023-04-28T03:35:20;48447.88;;;-141.90;48.15
5298;BME280;14738;42.668;23.250;2023-04-28T03:37:46;48463.75;;;-141.90;47.63
5298;BME280;14738;42.668;23.250;2023-04-28T03:40:12;48451.84;;;-141.90;46.44
5298;BME280;14738;42.668;23.250;2023-04-28T03:42:37;48447.88;;;-141.90;44.32
5298;BME280;14738;42.668;23.250;2023-04-28T03:45:03;48420.09;;;-141.90;41.94
5298;BME280;14738;42.668;23.250;2023-04-28T03:47:29;48410.16;;;-141.90;39.91
5298;BME280;14738;42.668;23.250;2023-04-28T03:49:54;48426.03;;;-141.90;39.18
5298;BME280;14738;42.668;23.250;2023-04-28T03:52:19;48394.28;;;-141.90;37.18
5298;BME280;14738;42.668;23.250;2023-04-28T03:54:45;48416.09;;;-141.90;35.18
5298;BME280;14738;42.668;23.250;2023-04-28T03:57:11;48414.13;;;-141.90;34.13
5298;BME280;14738;42.668;23.250;2023-04-28T03:59:37;48364.50;;;-141.90;33.04
5298;BME280;14738;42.668;23.250;2023-04-28T04:02:02;48422.06;;;-141.90;31.60
5298;BME280;14738;42.668;23.250;2023-04-28T04:04:28;48394.28;;;-141.90;29.34
5298;BME280;14738;42.668;23.250;2023-04-28T04:06:53;48370.44;;;-141.90;29.26
5298;BME280;14738;42.668;23.250;2023-04-28T04:09:19;48398.25;;;-141.90;29.75
5298;BME280;14738;42.668;23.250;2023-04-28T04:11:44;48364.50;;;-141.90;28.63
5298;BME280;14738;42.668;23.250;2023-04-28T04:14:10;48408.16;;;-141.90;28.60
5298;BME280;14738;42.668;23.250;2023-04-28T04:16:36;48426.03;;;-141.90;27.35
5298;BME280;14738;42.668;23.250;2023-04-28T04:19:01;48402.22;;;-141.90;27.35
5298;BME280;14738;42.668;23.250;2023-04-28T04:21:26;48380.38;;;-141.90;25.88
5298;BME280;14738;42.668;23.250;2023-04-28T04:23:52;48390.31;;;-141.90;24.81
5298;BME280;14738;42.668;23.250;2023-04-28T04:26:18;48420.09;;;-141.90;24.71
5298;BME280;14738;42.668;23.250;2023-04-28T04:28:43;48398.25;;;-141.90;24.06
5298;BME280;14738;42.668;23.250;2023-04-28T04:31:09;48433.97;;;-141.90;24.65
5298;BME280;14738;42.668;23.250;2023-04-28T04:33:34;48408.16;;;-141.90;23.18
5298;BME280;14738;42.668;23.250;2023-04-28T04:36:01;48430.00;;;-141.90;22.76
5298;BME280;14738;42.668;23.250;2023-04-28T04:38:26;48433.97;;;-141.90;22.49
5298;BME280;14738;42.668;23.250;2023-04-28T04:40:52;48406.19;;;-141.90;22.24
5298;BME280;14738;42.668;23.250;2023-04-28T04:43:17;48390.31;;;-141.90;22.82
5298;BME280;14738;42.668;23.250;2023-04-28T04:45:42;48422.06;;;-141.90;22.44
5298;BME280;14738;42.668;23.250;2023-04-28T04:48:08;48420.09;;;-141.90;22.49
5298;BME280;14738;42.668;23.250;2023-04-28T04:50:34;48398.25;;;-141.90;21.85
5298;BME280;14738;42.668;23.250;2023-04-28T04:52:59;48408.16;;;-141.90;21.73
5298;BME280;14738;42.668;23.250;2023-04-28T04:55:24;48432.00;;;-141.90;21.88
5298;BME280;14738;42.668;23.250;2023-04-28T04:57:50;48424.06;;;-141.90;21.56
5298;BME280;14738;42.668;23.250;2023-04-28T05:00:16;48457.81;;;-141.90;21.67
5298;BME280;14738;42.668;23.250;2023-04-28T05:02:41;48441.91;;;-141.90;21.01
5298;BME280;14738;42.668;23.250;2023-04-28T05:05:07;48441.91;;;-141.90;21.19
5298;BME280;14738;42.668;23.250;2023-04-28T05:07:33;48428.03;;;-141.90;20.97
5298;BME280;14738;42.668;23.250;2023-04-28T05:09:58;48441.91;;;-141.90;21.93
5298;BME280;14738;42.668;23.250;2023-04-28T05:12:24;48422.06;;;-141.90;20.95
5298;BME280;14738;42.668;23.250;2023-04-28T05:14:50;48447.88;;;-141.90;20.53
5298;BME280;14738;42.668;23.250;2023-04-28T05:17:15;48455.81;;;-141.90;22.16
5298;BME280;14738;42.668;23.250;2023-04-28T05:19:41;48465.75;;;-141.90;21.34
5298;BME280;14738;42.668;23.250;2023-04-28T05:22:06;48416.09;;;-141.90;21.33
5298;BME280;14738;42.668;23.250;2023-04-28T05:24:32;48461.78;;;-141.90;20.36
5298;BME280;14738;42.668;23.250;2023-04-28T05:26:58;48441.91;;;-141.90;20.02
5298;BME280;14738;42.668;23.250;2023-04-28T05:29:23;48433.97;;;-141.90;20.24
5298;BME280;14738;42.668;23.250;2023-04-28T05:31:49;48455.81;;;-141.90;20.51
5298;BME280;14738;42.668;23.250;2023-04-28T05:34:16;48441.91;;;-141.90;20.51
5298;BME280;14738;42.668;23.250;2023-04-28T05:36:43;48465.75;;;-141.90;19.99
5298;BME280;14738;42.668;23.250;2023-04-28T05:39:08;48402.22;;;-141.90;20.35
5298;BME280;14738;42.668;23.250;2023-04-28T05:41:34;48457.81;;;-141.90;20.64
5298;BME280;14738;42.668;23.250;2023-04-28T05:44:01;48451.84;;;-141.90;20.65
5298;BME280;14738;42.668;23.250;2023-04-28T05:46:26;48435.97;;;-141.90;20.82
5298;BME280;14738;42.668;23.250;2023-04-28T05:48:51;48433.97;;;-141.90;20.13
5298;BME280;14738;42.668;23.250;2023-04-28T05:51:17;48441.91;;;-141.90;19.78
5298;BME280;14738;42.668;23.250;2023-04-28T05:53:42;48459.78;;;-141.90;20.04
5298;BME280;14738;42.668;23.250;2023-04-28T05:56:08;48469.72;;;-141.90;19.78
5298;BME280;14738;42.668;23.250;2023-04-28T05:58:33;48479.63;;;-141.90;19.71
5298;BME280;14738;42.668;23.250;2023-04-28T06:00:59;48424.06;;;-141.90;19.74
5298;BME280;14738;42.668;23.250;2023-04-28T06:03:24;48473.69;;;-141.90;19.32
5298;BME280;14738;42.668;23.250;2023-04-28T06:05:50;48428.03;;;-141.90;19.15
5298;BME280;14738;42.668;23.250;2023-04-28T06:08:15;48453.81;;;-141.90;19.51
5298;BME280;14738;42.668;23.250;2023-04-28T06:10:41;48481.63;;;-141.90;19.05
5298;BME280;14738;42.668;23.250;2023-04-28T06:13:06;48430.00;;;-141.90;19.52
5298;BME280;14738;42.668;23.250;2023-04-28T06:15:32;48465.75;;;-141.90;19.52
5298;BME280;14738;42.668;23.250;2023-04-28T06:17:57;48465.75;;;-141.90;18.96
5298;BME280;14738;42.668;23.250;2023-04-28T06:20:23;48406.19;;;-141.90;20.15
5298;BME280;14738;42.668;23.250;2023-04-28T06:22:49;48433.97;;;-141.90;19.64
5298;BME280;14738;42.668;23.250;2023-04-28T06:25:14;48463.75;;;-141.90;20.16
5298;BME280;14738;42.668;23.250;2023-04-28T06:27:40;48441.91;;;-141.90;19.90
5298;BME280;14738;42.668;23.250;2023-04-28T06:30:06;48441.91;;;-141.90;20.01
5298;BME280;14738;42.668;23.250;2023-04-28T06:32:31;48445.88;;;-141.90;19.68
5298;BME280;14738;42.668;23.250;2023-04-28T06:34:56;48439.94;;;-141.90;20.33
5298;BME280;14738;42.668;23.250;2023-04-28T06:37:22;48445.88;;;-141.90;19.91
5298;BME280;14738;42.668;23.250;2023-04-28T06:39:47;48422.06;;;-141.90;20.80
5298;BME280;14738;42.668;23.250;2023-04-28T06:42:13;48430.00;;;-141.90;19.91
5298;BME280;14738;42.668;23.250;2023-04-28T06:44:42;48402.22;;;-141.90;20.32
5298;BME280;14738;42.668;23.250;2023-04-28T06:47:07;48398.25;;;-141.90;20.84
5298;BME280;14738;42.668;23.250;2023-04-28T06:49:33;48408.16;;;-141.90;21.16
5298;BME280;14738;42.668;23.250;2023-04-28T06:51:58;48414.13;;;-141.90;20.69
5298;BME280;14738;42.668;23.250;2023-04-28T06:54:24;48408.16;;;-141.90;20.49
5298;BME280;14738;42.668;23.250;2023-04-28T06:56:49;48441.91;;;-141.90;21.13
5298;BME280;14738;42.668;23.250;2023-04-28T06:59:14;48418.09;;;-141.90;23.10
5298;BME280;14738;42.668;23.250;2023-04-28T07:01:40;48374.41;;;-141.90;22.64
5298;BME280;14738;42.668;23.250;2023-04-28T07:04:05;48360.53;;;-141.90;24.97
5298;BME280;14738;42.668;23.250;2023-04-28T07:06:31;48374.41;;;-141.90;25.02
5298;BME280;14738;42.668;23.250;2023-04-28T07:08:56;48362.50;;;-141.90;25.78
5298;BME280;14738;42.668;23.250;2023-04-28T07:11:22;48386.34;;;-141.90;23.04
5298;BME280;14738;42.668;23.250;2023-04-28T07:13:47;48386.34;;;-141.90;23.10
5298;BME280;14738;42.668;23.250;2023-04-28T07:16:18;48338.69;;;-141.90;23.98
5298;BME280;14738;42.668;23.250;2023-04-28T07:18:45;48402.22;;;-141.90;23.59
5298;BME280;14738;42.668;23.250;2023-04-28T07:21:11;48374.41;;;-141.90;24.53
5298;BME280;14738;42.668;23.250;2023-04-28T07:23:37;48386.34;;;-141.90;23.30
5298;BME280;14738;42.668;23.250;2023-04-28T07:26:03;48358.53;;;-141.90;24.39
5298;BME280;14738;42.668;23.250;2023-04-28T07:28:29;48340.66;;;-141.90;23.78
5298;BME280;14738;42.668;23.250;2023-04-28T07:30:54;48378.38;;;-141.90;26.75
5298;BME280;14738;42.668;23.250;2023-04-28T07:33:20;48354.56;;;-141.90;26.99
5298;BME280;14738;42.668;23.250;2023-04-28T07:35:45;48378.38;;;-141.90;25.34
5298;BME280;14738;42.668;23.250;2023-04-28T07:38:11;48396.25;;;-141.90;25.41
5298;BME280;14738;42.668;23.250;2023-04-28T07:40:36;48378.38;;;-141.90;24.01
5298;BME280;14738;42.668;23.250;2023-04-28T07:43:02;48346.63;;;-141.90;25.44
5298;BME280;14738;42.668;23.250;2023-04-28T07:45:28;48362.50;;;-141.90;25.82
5298;BME280;14738;42.668;23.250;2023-04-28T07:47:53;48370.44;;;-141.90;25.33
5298;BME280;14738;42.668;23.250;2023-04-28T07:50:19;48394.28;;;-141.90;24.17
5298;BME280;14738;42.668;23.250;2023-04-28T07:52:44;48382.34;;;-141.90;25.32
5298;BME280;14738;42.668;23.250;2023-04-28T07:55:09;48340.66;;;-141.90;25.30
5298;BME280;14738;42.668;23.250;2023-04-28T07:57:35;48394.28;;;-141.90;26.22
5298;BME280;14738;42.668;23.250;2023-04-28T08:00:01;48352.59;;;-141.90;24.99
5298;BME280;14738;42.668;23.250;2023-04-28T08:02:27;48370.44;;;-141.90;26.33
5298;BME280;14738;42.668;23.250;2023-04-28T08:04:52;48346.63;;;-141.90;25.35
5298;BME280;14738;42.668;23.250;2023-04-28T08:07:18;48354.56;;;-141.90;26.71
5298;BME280;14738;42.668;23.250;2023-04-28T08:09:43;48318.84;;;-141.90;25.50
5298;BME280;14738;42.668;23.250;2023-04-28T08:12:12;48356.56;;;-141.90;24.83
5298;BME280;14738;42.668;23.250;2023-04-28T08:14:38;48350.59;;;-141.90;25.60
5298;BME280;14738;42.668;23.250;2023-04-28T08:17:03;48344.63;;;-141.90;27.85
5298;BME280;14738;42.668;23.250;2023-04-28T08:19:28;48354.56;;;-141.90;24.68
5298;BME280;14738;42.668;23.250;2023-04-28T08:21:54;48364.50;;;-141.90;25.87
5298;BME280;14738;42.668;23.250;2023-04-28T08:24:19;48346.63;;;-141.90;25.06
5298;BME280;14738;42.668;23.250;2023-04-28T08:26:44;48350.59;;;-141.90;26.18
5298;BME280;14738;42.668;23.250;2023-04-28T08:29:10;48360.53;;;-141.90;24.93
5298;BME280;14738;42.668;23.250;2023-04-28T08:31:36;48360.53;;;-141.90;25.78
5298;BME280;14738;42.668;23.250;2023-04-28T08:34:02;48338.69;;;-141.90;26.15
5298;BME280;14738;42.668;23.250;2023-04-28T08:36:28;48362.50;;;-141.90;25.07
5298;BME280;14738;42.668;23.250;2023-04-28T08:38:57;48394.28;;;-141.90;25.79
5298;BME280;14738;42.668;23.250;2023-04-28T08:41:31;48364.50;;;-141.90;25.40
5298;BME280;14738;42.668;23.250;2023-04-28T08:43:57;48366.47;;;-141.90;28.25
5298;BME280;14738;42.668;23.250;2023-04-28T08:46:23;48358.53;;;-141.90;26.08
5298;BME280;14738;42.668;23.250;2023-04-28T08:48:58;48386.34;;;-141.90;25.46
5298;BME280;14738;42.668;23.250;2023-04-28T08:51:32;48366.47;;;-141.90;24.19
5298;BME280;14738;42.668;23.250;2023-04-28T08:54:02;48390.31;;;-141.90;25.09
5298;BME280;14738;42.668;23.250;2023-04-28T08:56:31;48358.53;;;-141.90;25.39
5298;BME280;14738;42.668;23.250;2023-04-28T08:59:00;48370.44;;;-141.90;25.91
5298;BME280;14738;42.668;23.250;2023-04-28T09:01:26;48378.38;;;-141.90;26.34
5298;BME280;14738;42.668;23.250;2023-04-28T09:03:53;48384.34;;;-141.90;26.29
5298;BME280;14738;42.668;23.250;2023-04-28T09:06:18;48344.63;;;-141.90;25.13
5298;BME280;14738;42.668;23.250;2023-04-28T09:08:45;48352.59;;;-141.90;26.44
5298;BME280;14738;42.668;23.250;2023-04-28T09:11:11;48350.59;;;-141.90;26.36
5298;BME280;14738;42.668;23.250;2023-04-28T09:13:38;48362.50;;;-141.90;24.95
5298;BME280;14738;42.668;23.250;2023-04-28T09:16:04;48332.72;;;-141.90;25.17
5298;BME280;14738;42.668;23.250;2023-04-28T09:18:30;48370.44;;;-141.90;26.40
5298;BME280;14738;42.668;23.250;2023-04-28T09:21:08;48352.59;;;-141.90;25.51
5298;BME280;14738;42.668;23.250;2023-04-28T09:23:45;48368.47;;;-141.90;23.81
5298;BME280;14738;42.668;23.250;2023-04-28T09:26:12;48356.56;;;-141.90;25.45
5298;BME280;14738;42.668;23.250;2023-04-28T09:28:37;48360.53;;;-141.90;24.46
5298;BME280;14738;42.668;23.250;2023-04-28T09:31:03;48350.59;;;-141.90;25.31
5298;BME280;14738;42.668;23.250;2023-04-28T09:33:28;48362.50;;;-141.90;24.34
5298;BME280;14738;42.668;23.250;2023-04-28T09:35:54;48362.50;;;-141.90;24.52
5298;BME280;14738;42.668;23.250;2023-04-28T09:38:21;48342.66;;;-141.90;24.07
5298;BME280;14738;42.668;23.250;2023-04-28T09:43:25;48362.50;;;-141.90;24.23
5298;BME280;14738;42.668;23.250;2023-04-28T09:45:51;48352.59;;;-141.90;25.77
5298;BME280;14738;42.668;23.250;2023-04-28T09:48:25;48354.56;;;-141.90;23.88
5298;BME280;14738;42.668;23.250;2023-04-28T09:50:52;48372.44;;;-141.90;24.66
5298;BME280;14738;42.668;23.250;2023-04-28T09:53:20;48360.53;;;-141.90;24.26
5298;BME280;14738;42.668;23.250;2023-04-28T09:55:46;48366.47;;;-141.90;24.75
5298;BME280;14738;42.668;23.250;2023-04-28T09:58:14;48346.63;;;-141.90;25.07
5298;BME280;14738;42.668;23.250;2023-04-28T10:00:41;48348.63;;;-141.90;25.12
5298;BME280;14738;42.668;23.250;2023-04-28T10:03:07;48330.75;;;-141.90;24.09
5298;BME280;14738;42.668;23.250;2023-04-28T10:05:34;48348.63;;;-141.90;25.04
5298;BME280;14738;42.668;23.250;2023-04-28T10:08:01;48366.47;;;-141.90;24.40
5298;BME280;14738;42.668;23.250;2023-04-28T10:10:27;48394.28;;;-141.90;24.82
5298;BME280;14738;42.668;23.250;2023-04-28T10:12:54;48358.53;;;-141.90;24.30
5298;BME280;14738;42.668;23.250;2023-04-28T10:15:20;48398.25;;;-141.90;23.21
5298;BME280;14738;42.668;23.250;2023-04-28T10:17:47;48360.53;;;-141.90;23.06
5298;BME280;14738;42.668;23.250;2023-04-28T10:20:14;48324.78;;;-141.90;24.02
5298;BME280;14738;42.668;23.250;2023-04-28T10:25:35;48360.53;;;-141.90;23.74
5298;BME280;14738;42.668;23.250;2023-04-28T10:28:06;48344.63;;;-141.90;23.90
5298;BME280;14738;42.668;23.250;2023-04-28T10:30:32;48366.47;;;-141.90;24.01
5298;BME280;14738;42.668;23.250;2023-04-28T10:40:31;48356.56;;;-141.90;22.75
5298;BME280;14738;42.668;23.250;2023-04-28T10:42:58;48346.63;;;-141.90;22.52
5298;BME280;14738;42.668;23.250;2023-04-28T10:48:20;48396.25;;;-141.90;23.13
5298;BME280;14738;42.668;23.250;2023-04-28T10:56:13;48366.47;;;-141.90;22.19
5298;BME280;14738;42.668;23.250;2023-04-28T10:58:41;48368.47;;;-141.90;23.18
5298;BME280;14738;42.668;23.250;2023-04-28T11:03:49;48362.50;;;-141.90;22.06
5298;BME280;14738;42.668;23.250;2023-04-28T11:06:19;48388.31;;;-141.90;22.70
5298;BME280;14738;42.668;23.250;2023-04-28T11:08:50;48364.50;;;-141.90;22.02
5298;BME280;14738;42.668;23.250;2023-04-28T11:11:17;48378.38;;;-141.90;23.19
5298;BME280;14738;42.668;23.250;2023-04-28T11:13:44;48354.56;;;-141.90;21.75
5298;BME280;14738;42.668;23.250;2023-04-28T11:16:13;48402.22;;;-141.90;23.02
5298;BME280;14738;42.668;23.250;2023-04-28T11:18:53;48378.38;;;-141.90;22.69
5298;BME280;14738;42.668;23.250;2023-04-28T11:21:20;48364.50;;;-141.90;21.63
5298;BME280;14738;42.668;23.250;2023-04-28T11:23:46;48366.47;;;-141.90;22.31
5298;BME280;14738;42.668;23.250;2023-04-28T11:26:12;48358.53;;;-141.90;23.55
5298;BME280;14738;42.668;23.250;2023-04-28T11:28:52;48394.28;;;-141.90;23.83
5298;BME280;14738;42.668;23.250;2023-04-28T11:31:18;48364.50;;;-141.90;23.17
5298;BME280;14738;42.668;23.250;2023-04-28T11:33:52;48372.44;;;-141.90;21.71
5298;BME280;14738;42.668;23.250;2023-04-28T11:36:26;48366.47;;;-141.90;21.66
5298;BME280;14738;42.668;23.250;2023-04-28T11:38:53;48362.50;;;-141.90;21.69
5298;BME280;14738;42.668;23.250;2023-04-28T11:41:19;48344.63;;;-141.90;21.99
5298;BME280;14738;42.668;23.250;2023-04-28T11:43:44;48374.41;;;-141.90;21.56
5298;BME280;14738;42.668;23.250;2023-04-28T11:46:15;48356.56;;;-141.90;22.26
5298;BME280;14738;42.668;23.250;2023-04-28T11:48:42;48358.53;;;-141.90;21.73
5298;BME280;14738;42.668;23.250;2023-04-28T11:51:07;48342.66;;;-141.90;22.44
5298;BME280;14738;42.668;23.250;2023-04-28T11:53:41;48378.38;;;-141.90;21.41
5298;BME280;14738;42.668;23.250;2023-04-28T11:56:07;48378.38;;;-141.90;21.91
5298;BME280;14738;42.668;23.250;2023-04-28T11:58:35;48354.56;;;-141.90;22.06
5298;BME280;14738;42.668;23.250;2023-04-28T12:01:10;48350.59;;;-141.90;22.75
5298;BME280;14738;42.668;23.250;2023-04-28T12:03:46;48326.78;;;-141.90;22.70
5298;BME280;14738;42.668;23.250;2023-04-28T12:06:16;48356.56;;;-141.90;22.78
5298;BME280;14738;42.668;23.250;2023-04-28T12:08:43;48378.38;;;-141.90;22.40
5298;BME280;14738;42.668;23.250;2023-04-28T12:13:35;48346.63;;;-141.90;22.40
5298;BME280;14738;42.668;23.250;2023-04-28T12:16:02;48384.34;;;-141.90;22.06
5298;BME280;14738;42.668;23.250;2023-04-28T12:18:30;48342.66;;;-141.90;21.59
5298;BME280;14738;42.668;23.250;2023-04-28T12:20:55;48358.53;;;-141.90;21.43
5298;BME280;14738;42.668;23.250;2023-04-28T12:23:34;48358.53;;;-141.90;21.34
5298;BME280;14738;42.668;23.250;2023-04-28T12:26:01;48346.63;;;-141.90;21.72
5298;BME280;14738;42.668;23.250;2023-04-28T12:28:36;48372.44;;;-141.90;21.00
5298;BME280;14738;42.668;23.250;2023-04-28T12:31:04;48362.50;;;-141.90;22.82
5298;BME280;14738;42.668;23.250;2023-04-28T12:33:30;48356.56;;;-141.90;21.86
5298;BME280;14738;42.668;23.250;2023-04-28T12:35:58;48366.47;;;-141.90;22.99
5298;BME280;14738;42.668;23.250;2023-04-28T12:38:24;48370.44;;;-141.90;22.57
5298;BME280;14738;42.668;23.250;2023-04-28T12:40:49;48378.38;;;-141.90;22.03
5298;BME280;14738;42.668;23.250;2023-04-28T12:43:15;48386.34;;;-141.90;22.12
5298;BME280;14738;42.668;23.250;2023-04-28T12:45:40;48342.66;;;-141.90;22.34
5298;BME280;14738;42.668;23.250;2023-04-28T12:48:06;48364.50;;;-141.90;22.15
5298;BME280;14738;42.668;23.250;2023-04-28T12:50:32;48366.47;;;-141.90;21.52
5298;BME280;14738;42.668;23.250;2023-04-28T12:52:57;48396.25;;;-141.90;22.45
5298;BME280;14738;42.668;23.250;2023-04-28T12:55:23;48285.09;;;-141.90;22.19
5298;BME280;14738;42.668;23.250;2023-04-28T12:57:49;48354.56;;;-141.90;22.34
5298;BME280;14738;42.668;23.250;2023-04-28T13:00:15;48370.44;;;-141.90;22.01
5298;BME280;14738;42.668;23.250;2023-04-28T13:02:42;48362.50;;;-141.90;22.64